Newhall, IA (52315)

8:02 AM CST on February 10, 2016 (GMT -0600)
newhall | | Change Station
CLOSE
Current Station
Personal Weather Station
Location: Newhall, IA
Elevation: 925 ft
Nearby Weather Stations

Elev 925 ft 41.99 °N, 92.00 °W | Updated 12 seconds ago

Partly Cloudy
Partly Cloudy
7.9 °F
Feels Like -5 °F
N
8.9
Wind Variable Wind from NW
Gusts 9.8 mph

Today
High -- | Low -- °F
--% Chance of Precip.
Yesterday
High -- | Low -- °F
Precip. -- in
Pressure 30.15 in
Visibility 10.0 miles
Clouds Clear
Windchill -5 °F
Dew Point -7 °F
Humidity 50%
Rainfall 0.00 in
Snow Depth Not available.
7:10 AM 5:33 PM
Waxing Crescent, 5% visible
METAR KCID 101352Z 35006KT 10SM CLR M13/M17 A3010 RMK AO2 SLP210 T11331167
Pressure 30.15 in
Visibility 10.0 miles
Clouds Clear
Windchill -5 °F
Dew Point -7 °F
Humidity 50%
Rainfall 0.00 in
Snow Depth Not available.
7:10 AM 5:33 PM
Waxing Crescent, 5% visible
METAR KCID 101352Z 35006KT 10SM CLR M13/M17 A3010 RMK AO2 SLP210 T11331167

10-Day Weather Forecast

Almanac

Astronomy

Feb. 10, 2016 Rise Set
Actual Time
Civil Twilight
Nautical Twilight
Astronomical Twilight
Moon
Length of Visible Light
Length of Day
Tomorrow will be .
, % of the Moon is Illuminated

Today's Extremes

State Highs State Lows

Community

WunderPhotos

Upload Photos

1,891,846 photos uploaded!

WunderBlog® & News

Nearby

Air Quality

  Air Quality AQ Index Pollutant
Not available.

Snow Depth

Station Depth Elevation

Earthquake Activity

City Distance Mag. Time & Date
Minimum magnitude displayed is 2.5.

Coastal Water Temperatures

Place Temperature

Stations

Nearby Weather Stations

Station Location Temp. Windchill Dew Point Humidity Wind Precip. Elev Updated Type
                   

Watches & Warnings

There are currently no watches in effect.